Time;durP1;ratioP1;P1;durP2;ratioP2;P2;SDS_P1;SDS_P2;PMS_P1;PMS_P2;Temp;Humidity;BMP_temperature;BMP_pressure;BME280_temperature;BME280_humidity;BME280_pressure;Samples;Min_cycle;Max_cycle;Signal;HPM_P1;HPM_P2
2020/12/17 00:00:52;;;;;;;18.92;12.35;;;;;;;2.26;72.90;97480.56;1698303;83;21068;-55
2020/12/17 00:03:20;;;;;;;21.95;12.65;;;;;;;2.23;72.99;97482.73;1739387;80;21347;-55
2020/12/17 00:05:48;;;;;;;21.33;11.88;;;;;;;2.26;73.06;97486.52;1725449;82;21867;-55
2020/12/17 00:08:18;;;;;;;20.23;13.00;;;;;;;2.31;73.02;97489.80;1739908;81;21576;-55
2020/12/17 00:10:47;;;;;;;17.40;11.60;;;;;;;2.35;72.94;97479.05;1728861;82;21599;-55
2020/12/17 00:13:15;;;;;;;24.18;14.70;;;;;;;2.23;72.82;97495.55;1745135;82;21211;-55
2020/12/17 00:15:43;;;;;;;20.97;13.78;;;;;;;2.23;72.82;97495.55;1749775;82;21463;-54
2020/12/17 00:18:11;;;;;;;22.27;12.97;;;;;;;2.14;73.13;97502.17;1713244;81;21084;-54
2020/12/17 00:20:39;;;;;;;21.57;12.93;;;;;;;2.09;73.34;97494.59;1747588;82;21479;-54
2020/12/17 00:23:06;;;;;;;23.35;13.13;;;;;;;2.15;73.50;97499.55;1748754;81;21595;-54
2020/12/17 00:25:34;;;;;;;21.82;12.47;;;;;;;2.20;73.28;97501.59;1738490;81;21081;-55
2020/12/17 00:28:03;;;;;;;22.70;12.98;;;;;;;2.20;73.24;97509.69;1728671;82;22293;-55
2020/12/17 00:30:31;;;;;;;22.07;12.58;;;;;;;2.20;73.17;97505.85;1733269;82;21068;-54
2020/12/17 00:32:58;;;;;;;20.77;12.40;;;;;;;2.25;73.32;97512.98;1736875;81;21147;-54
2020/12/17 00:35:28;;;;;;;20.27;12.45;;;;;;;2.36;73.28;97514.04;1754426;81;21143;-54
2020/12/17 00:37:56;;;;;;;25.45;14.73;;;;;;;2.29;72.84;97513.78;1766411;80;21541;-55
2020/12/17 00:40:24;;;;;;;27.20;15.45;;;;;;;2.13;73.01;97520.51;1742349;80;21520;-55
2020/12/17 00:42:52;;;;;;;34.15;18.48;;;;;;;2.02;73.35;97517.34;1715173;83;21079;-55
2020/12/17 00:45:20;;;;;;;56.08;25.77;;;;;;;1.92;73.61;97521.80;1720609;82;21083;-54
2020/12/17 00:47:47;;;;;;;51.35;24.87;;;;;;;1.86;73.92;97523.66;1728524;82;21153;-55
2020/12/17 00:50:16;;;;;;;40.65;21.60;;;;;;;1.82;74.21;97521.59;1723844;82;21071;-55
2020/12/17 00:52:44;;;;;;;45.38;23.40;;;;;;;1.79;74.41;97524.22;1715714;82;21204;-54
2020/12/17 00:55:12;;;;;;;54.03;25.27;;;;;;;1.75;74.65;97530.28;1717439;82;21108;-54
2020/12/17 00:57:40;;;;;;;35.48;18.90;;;;;;;1.68;74.92;97526.14;1737279;82;21057;-53
2020/12/17 01:00:09;;;;;;;44.18;20.52;;;;;;;1.57;75.03;97529.77;1747592;81;21566;-58
2020/12/17 01:02:36;;;;;;;58.83;24.77;;;;;;;1.50;75.32;97538.45;1751612;80;21141;-55
2020/12/17 01:05:06;;;;;;;47.70;21.40;;;;;;;1.39;75.55;97544.20;1745528;80;21810;-54
2020/12/17 01:07:34;;;;;;;47.80;20.72;;;;;;;1.40;75.90;97533.11;1765596;81;21084;-54
2020/12/17 01:10:04;;;;;;;42.05;19.10;;;;;;;1.42;76.03;97529.63;1750765;81;21058;-55
2020/12/17 01:12:31;;;;;;;47.05;21.45;;;;;;;1.49;76.08;97527.80;1750110;80;21100;-55
2020/12/17 01:14:59;;;;;;;42.93;21.02;;;;;;;1.49;76.23;97521.40;1752735;81;21073;-54
2020/12/17 01:17:27;;;;;;;35.40;17.27;;;;;;;1.58;76.11;97525.48;1761495;81;21387;-54
2020/12/17 01:19:55;;;;;;;39.18;17.95;;;;;;;1.57;75.77;97519.98;1730196;81;21667;-54
2020/12/17 01:22:23;;;;;;;38.08;16.48;;;;;;;1.48;75.87;97510.78;1747268;80;21067;-54
2020/12/17 01:24:53;;;;;;;41.20;19.77;;;;;;;1.40;76.04;97508.81;1764502;81;25618;-54
2020/12/17 01:27:21;;;;;;;30.72;16.07;;;;;;;1.34;76.29;97510.20;1740755;81;21085;-56
2020/12/17 01:29:49;;;;;;;34.35;16.77;;;;;;;1.36;76.49;97511.00;1728031;82;21221;-55
2020/12/17 01:32:17;;;;;;;42.50;19.92;;;;;;;1.39;76.39;97502.00;1755429;80;21158;-55
2020/12/17 01:34:44;;;;;;;40.90;20.92;;;;;;;1.36;76.64;97497.77;1726393;81;21094;-55
2020/12/17 01:37:14;;;;;;;40.40;19.48;;;;;;;1.33;76.19;97504.22;1753213;81;21064;-55
2020/12/17 01:39:43;;;;;;;41.40;20.90;;;;;;;1.25;76.25;97500.97;1750618;81;21485;-56
2020/12/17 01:42:10;;;;;;;25.10;13.35;;;;;;;1.21;76.42;97504.47;1735618;81;22196;-55
2020/12/17 01:44:40;;;;;;;23.98;13.65;;;;;;;1.26;76.47;97506.05;1722708;82;21170;-55
2020/12/17 01:47:09;;;;;;;25.88;14.20;;;;;;;1.29;76.38;97506.00;1699630;82;21508;-54
2020/12/17 01:49:37;;;;;;;41.48;19.42;;;;;;;1.36;76.19;97503.33;1738254;82;21131;-55
2020/12/17 01:52:04;;;;;;;36.03;19.23;;;;;;;1.47;76.04;97509.92;1748256;82;21179;-55
2020/12/17 01:54:32;;;;;;;24.63;13.98;;;;;;;1.57;75.51;97508.02;1736516;82;21207;-54
2020/12/17 01:57:03;;;;;;;21.12;13.78;;;;;;;1.58;75.25;97502.47;1718475;82;21084;-54
2020/12/17 01:59:47;;;;;;;20.60;13.62;;;;;;;1.62;75.17;97509.22;1730234;82;21484;-54
2020/12/17 02:02:22;;;;;;;19.83;13.10;;;;;;;1.78;75.13;97509.76;1875310;76;23665;-55
2020/12/17 02:04:50;;;;;;;17.10;11.38;;;;;;;1.80;74.43;97505.44;1844418;77;21724;-54
2020/12/17 02:07:21;;;;;;;18.02;11.50;;;;;;;1.73;74.26;97500.89;1852822;77;22040;-55
2020/12/17 02:09:50;;;;;;;18.10;11.93;;;;;;;1.61;74.29;97496.01;1833562;77;20896;-55
2020/12/17 02:12:18;;;;;;;21.40;12.37;;;;;;;1.60;74.49;97502.02;1821493;78;21006;-55
2020/12/17 02:14:46;;;;;;;20.90;13.08;;;;;;;1.64;74.28;97498.09;1812663;77;21157;-54
2020/12/17 02:17:13;;;;;;;20.27;12.13;;;;;;;1.67;74.10;97483.55;1801590;78;21088;-55
2020/12/17 02:19:41;;;;;;;28.47;15.00;;;;;;;1.67;74.10;97483.55;1781916;78;22210;-56
2020/12/17 02:22:09;;;;;;;26.42;14.58;;;;;;;1.64;73.99;97482.75;1790602;80;20946;-54
2020/12/17 02:24:38;;;;;;;24.43;14.13;;;;;;;1.63;74.08;97484.05;1783702;78;21159;-55
2020/12/17 02:27:05;;;;;;;21.12;12.90;;;;;;;1.68;74.05;97482.23;1784352;80;21121;-55
2020/12/17 02:29:33;;;;;;;25.80;14.33;;;;;;;1.71;73.81;97480.03;1779957;80;21085;-55
2020/12/17 02:32:01;;;;;;;27.73;15.25;;;;;;;1.64;73.82;97480.19;1771171;80;21088;-55
2020/12/17 02:34:29;;;;;;;29.00;15.88;;;;;;;1.62;73.83;97475.52;1772403;80;21085;-55
2020/12/17 02:36:57;;;;;;;24.72;13.70;;;;;;;1.61;73.80;97472.98;1782827;80;21112;-54
2020/12/17 02:39:25;;;;;;;23.27;12.70;;;;;;;1.61;73.89;97472.98;1774243;79;21175;-54
2020/12/17 02:41:53;;;;;;;28.62;14.75;;;;;;;1.67;73.88;97467.75;1763473;81;21110;-55
2020/12/17 02:44:21;;;;;;;25.02;14.45;;;;;;;1.76;73.68;97471.41;1763607;80;21832;-55
2020/12/17 02:46:48;;;;;;;28.80;15.05;;;;;;;1.83;73.49;97467.83;1778456;79;21911;-54
2020/12/17 02:49:17;;;;;;;26.12;15.60;;;;;;;1.94;73.24;97470.59;1786301;79;21129;-54
2020/12/17 02:51:45;;;;;;;32.10;17.02;;;;;;;1.99;72.68;97474.75;1796727;79;21184;-54
2020/12/17 02:54:12;;;;;;;28.67;16.42;;;;;;;1.99;72.68;97474.75;1785206;79;21053;-55
2020/12/17 02:56:40;;;;;;;28.93;15.90;;;;;;;1.99;72.42;97481.14;1783935;79;21203;-56
2020/12/17 02:59:08;;;;;;;24.27;13.20;;;;;;;1.94;72.10;97466.75;1793707;79;21224;-55
2020/12/17 03:01:37;;;;;;;24.70;13.00;;;;;;;1.94;72.10;97466.75;1784765;80;21567;-55
2020/12/17 03:04:05;;;;;;;22.93;13.32;;;;;;;1.90;72.12;97469.81;1766988;80;21196;-55
2020/12/17 03:06:32;;;;;;;24.90;13.85;;;;;;;1.88;72.17;97465.17;1787570;80;21119;-54
2020/12/17 03:09:00;;;;;;;21.37;13.70;;;;;;;1.93;72.27;97463.35;1784891;79;21402;-55
2020/12/17 03:11:28;;;;;;;18.67;12.40;;;;;;;1.99;72.30;97460.67;1747001;80;21108;-55
2020/12/17 03:13:56;;;;;;;19.60;13.13;;;;;;;2.05;72.16;97456.28;1791042;80;21167;-55
2020/12/17 03:16:23;;;;;;;17.45;11.65;;;;;;;2.07;72.01;97464.31;1766864;80;21651;-55
2020/12/17 03:18:52;;;;;;;17.77;11.12;;;;;;;2.10;71.78;97467.25;1779977;79;21057;-54
2020/12/17 03:21:21;;;;;;;17.73;11.10;;;;;;;2.11;71.61;97468.50;1782705;78;21419;-55
2020/12/17 03:23:49;;;;;;;14.63;9.53;;;;;;;2.12;71.46;97461.23;1822068;78;21573;-54
2020/12/17 03:26:17;;;;;;;14.30;10.03;;;;;;;2.12;71.19;97451.41;1771675;78;21168;-55
2020/12/17 03:28:45;;;;;;;18.10;11.53;;;;;;;2.04;71.02;97454.17;1776078;80;21556;-54
2020/12/17 03:31:17;;;;;;;16.20;10.32;;;;;;;1.85;71.32;97456.28;1809905;78;21576;-55
2020/12/17 03:33:45;;;;;;;13.90;9.45;;;;;;;1.73;71.59;97452.73;1792206;78;21199;-55
2020/12/17 03:36:13;;;;;;;12.60;9.15;;;;;;;1.61;71.78;97452.52;1817736;78;21073;-55
2020/12/17 03:38:41;;;;;;;11.90;8.20;;;;;;;1.51;72.17;97458.27;1778667;79;21169;-55
2020/12/17 03:41:09;;;;;;;10.27;7.60;;;;;;;1.42;72.30;97452.08;1775109;78;21090;-54
2020/12/17 03:43:37;;;;;;;15.35;9.73;;;;;;;1.28;72.53;97444.66;1762910;81;21118;-55
2020/12/17 03:46:05;;;;;;;17.42;10.75;;;;;;;1.13;72.98;97447.53;1762865;81;23612;-56
2020/12/17 03:48:33;;;;;;;20.70;11.53;;;;;;;1.05;73.55;97448.53;1778810;79;21125;-55
2020/12/17 03:51:01;;;;;;;15.68;10.85;;;;;;;1.01;73.74;97447.33;1792982;79;21501;-55
2020/12/17 03:53:29;;;;;;;15.13;10.60;;;;;;;0.98;73.79;97443.55;1777012;79;21208;-56
2020/12/17 03:55:57;;;;;;;13.65;10.35;;;;;;;0.93;73.82;97444.91;1779276;79;21596;-56
2020/12/17 03:58:25;;;;;;;15.98;10.88;;;;;;;0.89;73.89;97448.41;1786721;79;21863;-55
2020/12/17 04:00:53;;;;;;;19.40;12.60;;;;;;;0.87;74.10;97447.16;1773908;80;21179;-55
2020/12/17 04:03:21;;;;;;;18.00;11.95;;;;;;;0.89;74.22;97442.02;1788638;80;21494;-55
2020/12/17 04:05:49;;;;;;;18.70;12.53;;;;;;;0.93;74.14;97448.73;1784625;79;21553;-55
2020/12/17 04:08:17;;;;;;;18.02;12.55;;;;;;;0.94;74.14;97450.44;1787250;79;21121;-57
2020/12/17 04:10:45;;;;;;;17.48;12.18;;;;;;;1.00;74.17;97454.13;1768961;80;21557;-55
2020/12/17 04:13:13;;;;;;;17.80;11.08;;;;;;;1.05;73.97;97454.05;1794224;80;21065;-55
2020/12/17 04:15:41;;;;;;;16.90;10.78;;;;;;;0.88;73.85;97448.81;1780516;80;21058;-54
2020/12/17 04:18:09;;;;;;;15.50;10.50;;;;;;;0.88;73.85;97448.81;1771035;80;21081;-55
2020/12/17 04:20:37;;;;;;;19.10;12.45;;;;;;;0.79;74.00;97452.84;1788848;80;21549;-55
2020/12/17 04:23:05;;;;;;;18.65;11.60;;;;;;;0.82;74.21;97453.20;1795451;79;21424;-55
2020/12/17 04:25:33;;;;;;;16.77;11.10;;;;;;;0.78;74.17;97449.03;1773408;79;21212;-55
2020/12/17 04:28:00;;;;;;;16.20;11.57;;;;;;;0.78;74.17;97449.03;1763167;80;21078;-55
2020/12/17 04:30:28;;;;;;;14.55;10.32;;;;;;;0.83;74.15;97450.62;1777564;80;21570;-54
2020/12/17 04:32:56;;;;;;;15.20;11.48;;;;;;;0.82;73.93;97451.51;1779346;79;21157;-55
2020/12/17 04:35:24;;;;;;;16.30;11.05;;;;;;;0.66;74.15;97453.92;1784139;79;21490;-55
2020/12/17 04:37:51;;;;;;;16.05;10.55;;;;;;;0.55;74.44;97453.64;1797549;79;21097;-55
2020/12/17 04:40:20;;;;;;;15.03;10.48;;;;;;;0.54;74.66;97458.78;1780725;79;21057;-55
2020/12/17 04:42:51;;;;;;;15.10;10.08;;;;;;;0.43;75.06;97456.42;1797645;79;21069;-55
2020/12/17 04:45:19;;;;;;;13.53;9.40;;;;;;;0.43;75.06;97456.42;1745088;81;21628;-55
2020/12/17 04:47:47;;;;;;;14.78;10.05;;;;;;;0.37;75.25;97462.89;1780651;80;21352;-55
2020/12/17 04:50:16;;;;;;;14.80;10.55;;;;;;;0.27;75.69;97454.53;1792287;79;21801;-54
2020/12/17 04:52:44;;;;;;;13.60;10.82;;;;;;;0.27;75.69;97454.53;1762855;81;21072;-55
2020/12/17 04:55:12;;;;;;;12.43;9.08;;;;;;;0.29;75.83;97465.55;1765986;78;21075;-55
2020/12/17 04:57:46;;;;;;;12.88;8.75;;;;;;;0.35;75.94;97455.25;1789992;80;21082;-55
2020/12/17 05:00:16;;;;;;;14.55;10.20;;;;;;;0.41;76.01;97458.57;1786959;78;21187;-55
2020/12/17 05:02:47;;;;;;;16.32;10.00;;;;;;;0.42;76.10;97460.27;1777625;80;21076;-55
2020/12/17 05:05:16;;;;;;;14.87;10.00;;;;;;;0.47;76.30;97459.31;1771914;80;21200;-55
2020/12/17 05:07:44;;;;;;;13.53;9.20;;;;;;;0.62;76.13;97457.38;1796178;80;21060;-55
2020/12/17 05:10:12;;;;;;;16.73;10.30;;;;;;;0.63;76.04;97466.73;1779290;78;21517;-55
2020/12/17 05:12:40;;;;;;;15.98;10.48;;;;;;;0.53;76.21;97467.33;1796034;80;21391;-54
2020/12/17 05:15:09;;;;;;;15.40;9.67;;;;;;;0.53;76.52;97466.88;1780140;80;21172;-54
2020/12/17 05:17:36;;;;;;;14.87;10.15;;;;;;;0.58;76.47;97469.36;1755970;79;21124;-55
2020/12/17 05:20:07;;;;;;;19.60;11.90;;;;;;;0.49;76.88;97469.09;1827536;78;21740;-54
2020/12/17 05:22:36;;;;;;;15.63;10.85;;;;;;;0.49;76.88;97469.09;1793331;78;21065;-56
2020/12/17 05:25:04;;;;;;;17.77;11.40;;;;;;;0.57;76.92;97468.95;1803764;78;21200;-54
2020/12/17 05:27:32;;;;;;;15.75;10.13;;;;;;;0.83;76.65;97467.22;1764807;80;21080;-54
2020/12/17 05:30:03;;;;;;;14.15;10.32;;;;;;;0.83;76.65;97467.22;1776840;78;21045;-56
2020/12/17 05:32:31;;;;;;;16.57;11.22;;;;;;;0.88;76.37;97464.59;1785529;80;21084;-55
2020/12/17 05:35:02;;;;;;;14.58;9.93;;;;;;;0.90;76.28;97466.68;1810410;78;21096;-55
2020/12/17 05:37:31;;;;;;;15.68;10.10;;;;;;;0.95;76.23;97462.77;1805801;78;22255;-55
2020/12/17 05:40:00;;;;;;;14.05;10.00;;;;;;;0.91;76.18;97467.09;1809451;78;21097;-54
2020/12/17 05:42:28;;;;;;;;;;;;;;;0.84;76.41;97465.50;1779177;78;21550;-55
2020/12/17 05:44:55;;;;;;;16.82;10.40;;;;;;;0.81;76.60;97460.47;1803827;78;20222;-55
2020/12/17 05:47:23;;;;;;;17.75;10.98;;;;;;;0.71;76.79;97463.63;1795945;80;21478;-55
2020/12/17 05:49:51;;;;;;;15.25;10.03;;;;;;;0.71;76.79;97463.63;1810086;78;21493;-55
2020/12/17 05:52:21;;;;;;;17.52;11.33;;;;;;;0.71;76.98;97461.06;1824668;78;21069;-56
2020/12/17 05:55:03;;;;;;;15.80;9.63;;;;;;;0.68;76.98;97459.84;1762838;81;21140;-55
2020/12/17 05:57:31;;;;;;;16.07;10.23;;;;;;;0.69;77.05;97461.09;1796699;78;21856;-56
2020/12/17 06:00:04;;;;;;;16.90;11.03;;;;;;;0.63;77.08;97462.47;1774251;78;21517;-54
2020/12/17 06:02:35;;;;;;;14.20;9.80;;;;;;;0.65;77.23;97467.55;1760748;81;21377;-55
2020/12/17 06:05:13;;;;;;;16.10;9.20;;;;;;;0.69;77.22;97464.06;1795768;80;21430;-56
2020/12/17 06:07:49;;;;;;;16.75;10.28;;;;;;;0.70;77.11;97461.92;1794346;80;21077;-55
2020/12/17 06:10:29;;;;;;;22.87;11.53;;;;;;;0.66;76.94;97470.08;1827651;78;21100;-55
2020/12/17 06:12:59;;;;;;;33.25;13.83;;;;;;;0.60;77.00;97464.23;1827729;78;27116;-55
2020/12/17 06:15:29;;;;;;;27.93;12.95;;;;;;;0.31;77.72;97466.40;1799014;78;22211;-54
2020/12/17 06:18:02;;;;;;;29.30;11.28;;;;;;;0.16;77.99;97476.82;1796158;80;21120;-54
2020/12/17 06:20:33;;;;;;;37.63;10.70;;;;;;;0.16;77.99;97476.82;1787736;78;21061;-54
2020/12/17 06:23:03;;;;;;;17.55;10.28;;;;;;;0.01;78.48;97473.23;1811675;78;22236;-55
2020/12/17 06:25:34;;;;;;;17.15;9.50;;;;;;;-0.05;79.12;97473.73;1778039;80;21477;-55
2020/12/17 06:28:03;;;;;;;18.30;10.00;;;;;;;-0.04;79.24;97475.39;1796079;80;21190;-55
2020/12/17 06:30:32;;;;;;;16.48;10.23;;;;;;;-0.03;79.22;97480.92;1792258;80;21489;-55
2020/12/17 06:33:07;;;;;;;18.52;10.23;;;;;;;-0.06;79.36;97482.23;1828434;78;21060;-55
2020/12/17 06:35:43;;;;;;;26.25;10.65;;;;;;;-0.01;79.53;97486.01;1744415;81;21174;-56
2020/12/17 06:38:15;;;;;;;25.17;9.85;;;;;;;0.06;79.57;97483.77;1795920;80;21148;-55
2020/12/17 06:40:42;;;;;;;14.50;9.33;;;;;;;0.08;79.87;97490.98;1764476;81;21386;-56
2020/12/17 06:43:14;;;;;;;14.20;8.75;;;;;;;0.08;79.87;97490.98;1804508;78;21108;-54
2020/12/17 06:45:43;;;;;;;11.48;7.83;;;;;;;0.06;80.03;97490.14;1790326;78;21502;-55
2020/12/17 06:48:30;;;;;;;13.43;8.58;;;;;;;0.06;80.26;97492.70;1810484;78;21058;-55
2020/12/17 06:50:59;;;;;;;16.70;10.03;;;;;;;0.10;80.41;97499.88;1812633;78;21544;-55
2020/12/17 06:53:37;;;;;;;;;;;;;;;0.09;80.54;97501.59;1823188;78;21373;-56
2020/12/17 06:56:05;;;;;;;15.78;10.35;;;;;;;0.15;80.68;97504.06;1820612;78;20594;-55
2020/12/17 06:58:33;;;;;;;16.75;10.55;;;;;;;0.53;79.84;97509.02;1820441;78;21473;-55
2020/12/17 07:01:01;;;;;;;19.70;11.12;;;;;;;0.53;79.84;97509.02;1806514;78;21625;-55
2020/12/17 07:03:48;;;;;;;19.85;10.70;;;;;;;0.63;79.96;97513.55;1806334;78;21473;-55
2020/12/17 07:06:19;;;;;;;18.32;10.55;;;;;;;0.72;79.87;97509.99;1790831;78;21553;-54
2020/12/17 07:08:55;;;;;;;18.20;11.03;;;;;;;0.77;79.52;97514.59;1760643;80;21099;-55
2020/12/17 07:11:45;;;;;;;19.57;11.80;;;;;;;0.71;79.47;97513.44;1790748;78;21651;-55
2020/12/17 07:14:32;;;;;;;19.25;11.80;;;;;;;0.64;79.52;97515.66;1807120;78;21045;-54
2020/12/17 07:17:07;;;;;;;17.80;11.08;;;;;;;0.60;80.19;97521.70;1763418;80;21062;-55
2020/12/17 07:19:45;;;;;;;19.00;11.83;;;;;;;0.60;80.19;97521.70;1790032;80;21198;-54
2020/12/17 07:22:17;;;;;;;16.10;9.95;;;;;;;0.60;80.06;97533.19;1794365;78;21870;-54
2020/12/17 07:24:49;;;;;;;19.15;11.93;;;;;;;0.55;80.21;97524.32;1811030;78;21152;-54
2020/12/17 07:27:23;;;;;;;17.67;11.70;;;;;;;0.56;80.46;97533.68;1766349;80;21581;-55
2020/12/17 07:30:06;;;;;;;18.90;11.68;;;;;;;0.50;80.39;97535.05;1779794;80;21184;-55
2020/12/17 07:32:36;;;;;;;17.73;10.55;;;;;;;0.40;80.84;97529.23;1808443;78;21304;-55
2020/12/17 07:35:12;;;;;;;19.48;11.08;;;;;;;0.36;81.35;97539.06;1789869;80;21115;-55
2020/12/17 07:37:45;;;;;;;17.25;11.15;;;;;;;0.36;81.35;97539.06;1790294;78;21523;-54
2020/12/17 07:40:35;;;;;;;18.65;11.95;;;;;;;0.28;81.53;97537.92;1790196;80;21506;-56
2020/12/17 07:43:15;;;;;;;42.27;13.70;;;;;;;0.26;81.72;97540.06;1790778;78;21073;-54
2020/12/17 07:45:51;;;;;;;22.15;11.28;;;;;;;0.26;82.06;97542.62;1790136;79;21360;-55
2020/12/17 07:48:50;;;;;;;18.35;11.18;;;;;;;0.28;82.13;97540.47;1789982;80;21080;-55
2020/12/17 07:51:26;;;;;;;24.95;13.13;;;;;;;0.22;82.03;97547.37;1796743;78;21109;-54
2020/12/17 07:53:54;;;;;;;25.40;13.22;;;;;;;0.26;82.31;97545.17;1821951;78;21943;-56
2020/12/17 07:56:22;;;;;;;22.40;12.78;;;;;;;0.34;82.30;97549.30;1822436;78;21029;-55
2020/12/17 07:58:51;;;;;;;22.13;11.73;;;;;;;0.43;82.01;97547.47;1822706;78;22472;-54
2020/12/17 08:01:19;;;;;;;17.75;10.32;;;;;;;0.35;82.38;97543.78;1815681;78;21069;-55
2020/12/17 08:03:50;;;;;;;17.30;10.70;;;;;;;0.25;82.60;97543.06;1754123;79;21125;-54
2020/12/17 08:06:25;;;;;;;24.07;13.53;;;;;;;0.22;82.94;97541.83;1740495;82;21131;-54
2020/12/17 08:08:56;;;;;;;20.10;10.23;;;;;;;0.21;83.02;97540.56;1780808;80;21069;-55
2020/12/17 08:11:26;;;;;;;26.17;13.85;;;;;;;0.25;83.34;97544.78;1755543;80;21147;-55
2020/12/17 08:14:05;;;;;;;25.72;14.25;;;;;;;0.37;83.27;97556.08;1770447;80;21160;-55
2020/12/17 08:16:33;;;;;;;21.57;11.38;;;;;;;0.37;83.27;97556.08;1774346;80;21069;-54
2020/12/17 08:19:02;;;;;;;19.02;11.70;;;;;;;0.50;83.16;97547.37;1756892;80;21069;-54
2020/12/17 08:21:30;;;;;;;20.50;11.83;;;;;;;0.54;82.94;97549.02;1774454;80;21069;-54
2020/12/17 08:23:58;;;;;;;20.33;11.07;;;;;;;0.52;83.02;97553.73;1754977;80;21346;-54
2020/12/17 08:26:29;;;;;;;17.92;11.10;;;;;;;0.52;83.02;97553.73;1726343;81;21132;-54
2020/12/17 08:28:56;;;;;;;21.35;11.38;;;;;;;0.52;83.00;97551.18;1753553;81;21549;-54
2020/12/17 08:31:28;;;;;;;16.25;9.58;;;;;;;0.43;83.17;97553.86;1753437;81;22007;-58
2020/12/17 08:34:00;;;;;;;19.95;10.32;;;;;;;0.43;83.17;97553.86;1781956;80;21136;-54
2020/12/17 08:36:34;;;;;;;19.92;10.05;;;;;;;0.46;83.44;97555.09;1784526;80;21379;-54
2020/12/17 08:39:10;;;;;;;18.98;10.93;;;;;;;0.46;83.44;97555.09;1757006;80;21136;-55
2020/12/17 08:41:43;;;;;;;30.68;13.68;;;;;;;0.48;83.58;97550.83;1783093;80;21533;-54
2020/12/17 08:44:11;;;;;;;23.27;13.03;;;;;;;0.61;83.73;97559.12;1784193;80;21073;-54
2020/12/17 08:46:47;;;;;;;24.47;12.35;;;;;;;0.76;83.25;97556.77;1784747;80;21459;-54
2020/12/17 08:49:16;;;;;;;22.73;12.05;;;;;;;0.88;82.85;97560.41;1769365;80;21344;-54
2020/12/17 08:51:47;;;;;;;24.95;12.98;;;;;;;0.88;82.85;97560.41;1727433;80;21080;-55
2020/12/17 08:54:32;;;;;;;24.67;12.82;;;;;;;0.89;82.88;97565.50;1776830;80;21140;-55
2020/12/17 08:57:05;;;;;;;18.85;10.85;;;;;;;0.97;82.79;97566.66;1764949;80;21133;-56
2020/12/17 08:59:33;;;;;;;21.48;12.60;;;;;;;1.07;82.43;97568.19;1753539;81;21521;-54
2020/12/17 09:02:01;;;;;;;24.35;14.10;;;;;;;1.12;82.00;97563.41;1753406;81;21270;-55
2020/12/17 09:04:29;;;;;;;28.10;14.87;;;;;;;1.07;81.63;97557.97;1757850;79;21188;-54
2020/12/17 09:06:59;;;;;;;31.93;13.83;;;;;;;1.07;81.63;97557.97;1722082;81;21132;-54
2020/12/17 09:09:29;;;;;;;22.60;11.60;;;;;;;0.99;81.99;97567.92;1698953;82;21151;-54
2020/12/17 09:11:59;;;;;;;47.95;17.02;;;;;;;0.95;82.34;97568.38;1728041;82;21145;-55
2020/12/17 09:14:29;;;;;;;52.65;17.27;;;;;;;0.89;82.45;97560.39;1731613;82;22184;-54
2020/12/17 09:17:17;;;;;;;28.77;14.90;;;;;;;0.97;82.51;97561.96;1728123;82;21185;-55
2020/12/17 09:19:47;;;;;;;24.55;13.72;;;;;;;1.05;82.67;97560.98;1733387;81;21160;-55
2020/12/17 09:22:19;;;;;;;31.00;15.78;;;;;;;1.20;82.23;97557.31;1750821;82;21057;-54
2020/12/17 09:24:50;;;;;;;25.00;14.18;;;;;;;1.25;82.28;97549.54;1772646;80;21163;-54
2020/12/17 09:27:31;;;;;;;26.93;14.50;;;;;;;1.44;81.60;97546.23;1758391;80;21369;-55
2020/12/17 09:30:04;;;;;;;24.95;14.03;;;;;;;1.27;81.76;97538.87;1774702;80;21557;-55
2020/12/17 09:32:34;;;;;;;28.80;15.32;;;;;;;1.27;81.76;97538.87;1758267;81;21061;-53
2020/12/17 09:35:13;;;;;;;24.75;13.45;;;;;;;1.32;81.96;97540.08;1758146;81;21061;-55
2020/12/17 09:37:42;;;;;;;22.25;13.25;;;;;;;1.45;81.38;97539.80;1758291;81;21073;-55
2020/12/17 09:40:10;;;;;;;27.42;13.30;;;;;;;1.50;81.03;97538.86;1758548;80;22246;-55
2020/12/17 09:42:38;;;;;;;25.70;13.22;;;;;;;1.52;80.70;97534.58;1749967;81;21104;-54
2020/12/17 09:45:17;;;;;;;30.02;12.45;;;;;;;1.55;80.45;97531.97;1741866;81;21576;-55
2020/12/17 09:47:45;;;;;;;24.12;12.75;;;;;;;1.47;80.11;97530.83;1762637;81;21112;-54
2020/12/17 09:50:16;;;;;;;24.77;13.18;;;;;;;1.28;80.37;97536.30;1770561;81;21064;-55
2020/12/17 09:52:44;;;;;;;22.82;13.75;;;;;;;1.17;80.63;97531.80;1770430;81;21373;-55
2020/12/17 09:55:13;;;;;;;20.62;10.98;;;;;;;1.12;80.90;97535.30;1770376;81;21200;-55
2020/12/17 09:57:44;;;;;;;22.62;11.22;;;;;;;1.07;81.16;97531.56;1714409;82;21122;-54
2020/12/17 10:00:13;;;;;;;24.35;13.08;;;;;;;1.01;81.65;97531.22;1739861;82;21082;-54
2020/12/17 10:02:41;;;;;;;20.95;12.70;;;;;;;0.73;82.50;97536.79;1741906;81;21090;-54
2020/12/17 10:05:11;;;;;;;24.23;13.37;;;;;;;0.73;82.50;97536.79;1770830;81;22013;-55
2020/12/17 10:07:41;;;;;;;20.92;12.05;;;;;;;0.66;83.16;97535.66;1771178;81;21132;-55
2020/12/17 10:10:08;;;;;;;28.65;15.05;;;;;;;0.70;83.27;97533.45;1766333;81;21525;-55
2020/12/17 10:12:39;;;;;;;26.42;14.38;;;;;;;0.75;83.34;97502.72;1753475;81;21151;-54
2020/12/17 10:15:07;;;;;;;26.82;15.20;;;;;;;0.90;83.16;97528.00;1740886;82;21148;-55
2020/12/17 10:17:34;;;;;;;28.98;15.70;;;;;;;1.09;82.72;97535.77;1740640;81;21096;-56
2020/12/17 10:20:05;;;;;;;26.95;13.53;;;;;;;1.17;82.25;97525.41;1744809;81;21156;-54
2020/12/17 10:22:34;;;;;;;29.48;16.42;;;;;;;1.24;82.06;97526.98;1768892;81;21490;-55
2020/12/17 10:25:04;;;;;;;22.65;12.93;;;;;;;1.17;81.68;97533.08;1771303;81;21098;-55
2020/12/17 10:27:33;;;;;;;30.15;16.50;;;;;;;1.07;82.18;97530.29;1755696;80;21489;-54
2020/12/17 10:30:02;;;;;;;32.67;17.57;;;;;;;1.01;82.70;97529.11;1752691;81;22023;-55
2020/12/17 10:32:32;;;;;;;31.48;16.73;;;;;;;1.01;82.70;97529.11;1771362;81;21072;-54
2020/12/17 10:35:01;;;;;;;24.57;13.30;;;;;;;1.02;82.57;97523.11;1766604;81;21057;-54
2020/12/17 10:37:30;;;;;;;25.57;14.15;;;;;;;1.03;82.71;97526.09;1771459;81;21129;-54
2020/12/17 10:39:58;;;;;;;24.30;13.70;;;;;;;1.17;82.62;97529.25;1761682;81;21485;-55
2020/12/17 10:42:25;;;;;;;18.87;11.57;;;;;;;1.31;82.25;97522.59;1740904;81;21641;-55
2020/12/17 10:44:53;;;;;;;23.60;14.73;;;;;;;1.42;81.72;97522.41;1740723;82;21085;-55
2020/12/17 10:47:21;;;;;;;22.73;12.88;;;;;;;1.47;81.25;97519.31;1742822;81;22379;-55
2020/12/17 10:49:49;;;;;;;20.75;11.83;;;;;;;1.52;80.83;97517.95;1740884;81;21568;-54
2020/12/17 10:52:18;;;;;;;24.35;14.07;;;;;;;1.47;80.38;97511.20;1740848;82;21128;-54
2020/12/17 10:54:45;;;;;;;20.00;11.33;;;;;;;1.36;80.40;97512.28;1740947;82;21404;-53
2020/12/17 10:57:18;;;;;;;31.90;13.10;;;;;;;1.36;80.56;97520.79;1752690;81;21639;-54
2020/12/17 10:59:48;;;;;;;32.00;13.95;;;;;;;1.34;80.36;97521.26;1771130;81;21128;-55
2020/12/17 11:02:16;;;;;;;23.83;12.90;;;;;;;1.25;80.42;97512.47;1771467;81;22688;-54
2020/12/17 11:04:44;;;;;;;19.75;12.43;;;;;;;1.33;80.91;97513.61;1754266;79;21124;-55
2020/12/17 11:07:12;;;;;;;23.63;14.20;;;;;;;1.49;80.69;97515.01;1758774;81;21388;-55
2020/12/17 11:09:39;;;;;;;23.27;12.93;;;;;;;1.64;80.73;97515.14;1739133;82;21120;-55
2020/12/17 11:12:08;;;;;;;35.30;13.93;;;;;;;1.81;80.05;97514.37;1749670;81;21620;-55
2020/12/17 11:14:37;;;;;;;21.15;12.23;;;;;;;1.81;79.71;97514.37;1740310;81;21155;-55
2020/12/17 11:17:05;;;;;;;22.95;12.63;;;;;;;1.64;79.11;97510.89;1760543;81;21188;-53
2020/12/17 11:19:33;;;;;;;22.70;13.50;;;;;;;1.37;79.58;97511.42;1761544;81;21214;-54
2020/12/17 11:22:02;;;;;;;18.90;11.63;;;;;;;1.21;80.34;97511.69;1769613;81;21114;-53
2020/12/17 11:24:30;;;;;;;31.60;15.60;;;;;;;1.25;80.88;97503.11;1769936;81;21513;-55
2020/12/17 11:26:58;;;;;;;24.25;14.38;;;;;;;1.35;81.22;97511.45;1764082;81;21164;-54
2020/12/17 11:29:26;;;;;;;20.68;12.10;;;;;;;1.50;80.88;97509.03;1739368;82;21136;-55
2020/12/17 11:31:54;;;;;;;37.70;16.42;;;;;;;1.54;80.71;97505.97;1739168;82;21366;-55
2020/12/17 11:34:22;;;;;;;44.00;16.67;;;;;;;1.53;80.74;97501.72;1739100;82;21108;-55
2020/12/17 11:36:50;;;;;;;35.03;16.67;;;;;;;1.63;80.90;97501.96;1745912;81;21096;-55
2020/12/17 11:39:18;;;;;;;21.00;12.75;;;;;;;1.78;80.19;97495.69;1769743;81;21148;-55